Time;durP1;ratioP1;P1;durP2;ratioP2;P2;SDS_P1;SDS_P2;PMS_P1;PMS_P2;Temp;Humidity;BMP_temperature;BMP_pressure;BME280_temperature;BME280_humidity;BME280_pressure;Samples;Min_cycle;Max_cycle;Signal;HPM_P1;HPM_P2
2024/04/16 00:01:27;;;;;;;;;;;;;;;15.31;61.47;99961.84;107391;1253;97830;-62
2024/04/16 00:03:55;;;;;;;;;;;;;;;15.31;60.98;99957.30;107396;1257;97737;-62
2024/04/16 00:06:24;;;;;;;;;;;;;;;15.34;61.14;99965.02;107475;1253;111822;-62
2024/04/16 00:08:53;;;;;;;;;;;;;;;15.31;61.41;99961.63;107409;1254;108759;-62
2024/04/16 00:11:21;;;;;;;;;;;;;;;15.24;61.84;99954.65;107419;1253;108133;-63
2024/04/16 00:13:49;;;;;;;;;;;;;;;15.06;62.69;99954.33;107401;1254;97917;-65
2024/04/16 00:16:29;;;;;;;;;;;;;;;14.89;63.02;99958.86;107411;1254;97828;-64
2024/04/16 00:18:57;;;;;;;;;;;;;;;14.79;63.24;99966.41;107387;1254;111927;-64
2024/04/16 00:21:26;;;;;;;;;;;;;;;14.67;63.55;99967.98;107418;1253;108394;-63
2024/04/16 00:23:54;;;;;;;;;;;;;;;14.59;64.35;99966.72;107370;1253;107094;-63
2024/04/16 00:26:22;;;;;;;;;;;;;;;14.44;65.60;99967.45;107408;1253;97918;-63
2024/04/16 00:28:50;;;;;;;;;;;;;;;14.28;65.71;99960.26;107408;1253;97839;-63
2024/04/16 00:31:18;;;;;;;;;;;;;;;14.25;65.56;99956.29;107425;1253;111229;-62
2024/04/16 00:33:46;;;;;;;;;;;;;;;14.19;65.91;99943.08;107422;1257;107358;-63
2024/04/16 00:36:14;;;;;;;;;;;;;;;14.19;65.53;99937.54;107438;1254;107582;-64
2024/04/16 00:38:42;;;;;;;;;;;;;;;14.25;65.14;99937.90;107374;1257;97816;-63
2024/04/16 00:41:10;;;;;;;;;;;;;;;14.34;64.75;99934.73;107423;1253;97826;-63
2024/04/16 00:43:38;;;;;;;;;;;;;;;14.42;64.76;99940.61;107416;1253;112282;-62
2024/04/16 00:46:06;;;;;;;;;;;;;;;14.44;65.60;99948.34;107396;1253;108370;-63
2024/04/16 00:48:35;;;;;;;;;;;;;;;14.39;65.30;99947.61;107396;1254;108223;-63
2024/04/16 00:51:04;;;;;;;;;;;;;;;14.33;65.94;99943.16;107413;1253;97904;-64
2024/04/16 00:53:31;;;;;;;;;;;;;;;14.29;65.42;99942.14;107414;1253;98002;-64
2024/04/16 00:56:00;;;;;;;;;;;;;;;14.30;65.76;99938.78;107459;1253;111832;-63
2024/04/16 00:58:29;;;;;;;;;;;;;;;14.31;65.19;99936.16;107409;1253;107549;-63
2024/04/16 01:00:58;;;;;;;;;;;;;;;14.34;65.08;99926.88;107491;1253;107816;-62
2024/04/16 01:03:26;;;;;;;;;;;;;;;14.37;65.04;99922.99;107408;1253;97839;-63
2024/04/16 01:05:54;;;;;;;;;;;;;;;14.40;64.71;99923.68;107426;1257;97842;-62
2024/04/16 01:08:22;;;;;;;;;;;;;;;14.45;64.36;99919.05;107389;1257;111004;-62
2024/04/16 01:10:50;;;;;;;;;;;;;;;14.48;64.60;99918.47;107397;1253;108272;-63
2024/04/16 01:13:18;;;;;;;;;;;;;;;14.49;64.75;99925.16;107400;1254;107730;-63
2024/04/16 01:15:47;;;;;;;;;;;;;;;14.49;64.43;99921.58;107379;1253;97830;-62
2024/04/16 01:18:15;;;;;;;;;;;;;;;14.51;64.33;99917.91;107404;1253;97753;-62
2024/04/16 01:20:43;;;;;;;;;;;;;;;14.50;64.25;99913.55;107373;1254;111463;-63
2024/04/16 01:23:11;;;;;;;;;;;;;;;14.51;63.96;99906.13;107381;1253;107346;-62
2024/04/16 01:25:41;;;;;;;;;;;;;;;14.56;63.88;99900.92;107380;1254;107000;-63
2024/04/16 01:28:09;;;;;;;;;;;;;;;14.61;63.61;99896.70;107418;1254;97887;-62
2024/04/16 01:30:37;;;;;;;;;;;;;;;14.66;63.51;99894.33;107346;1257;97817;-63
2024/04/16 01:33:07;;;;;;;;;;;;;;;14.69;63.89;99883.70;107367;1254;111266;-62
2024/04/16 01:35:35;;;;;;;;;;;;;;;14.66;63.59;99882.52;107468;1253;108306;-63
2024/04/16 01:38:04;;;;;;;;;;;;;;;14.69;63.31;99877.86;107432;1253;107717;-63
2024/04/16 01:40:32;;;;;;;;;;;;;;;14.72;63.39;99877.41;107396;1253;97868;-61
2024/04/16 01:43:00;;;;;;;;;;;;;;;14.70;63.57;99874.84;107467;1253;97916;-62
2024/04/16 01:45:28;;;;;;;;;;;;;;;14.67;63.89;99869.42;107459;1253;111585;-63
2024/04/16 01:47:55;;;;;;;;;;;;;;;14.62;64.61;99863.54;107441;1253;108906;-63
2024/04/16 01:50:24;;;;;;;;;;;;;;;14.56;64.82;99865.19;107536;1257;107650;-64
2024/04/16 01:52:52;;;;;;;;;;;;;;;14.50;64.84;99874.91;107416;1253;97852;-61
2024/04/16 01:55:19;;;;;;;;;;;;;;;14.45;64.79;99885.75;107494;1253;97868;-63
2024/04/16 01:57:48;;;;;;;;;;;;;;;14.36;64.53;99890.27;107463;1253;111781;-63
2024/04/16 02:00:17;;;;;;;;;;;;;;;14.33;64.65;99887.42;107493;1253;107473;-63
2024/04/16 02:02:45;;;;;;;;;;;;;;;14.34;64.71;99892.85;107473;1254;108505;-63
2024/04/16 02:05:13;;;;;;;;;;;;;;;14.38;64.49;99888.09;107452;1253;97832;-63
2024/04/16 02:07:41;;;;;;;;;;;;;;;14.40;64.39;99887.92;107466;1253;97891;-64
2024/04/16 02:10:13;;;;;;;;;;;;;;;14.45;64.23;99883.23;107457;1253;112380;-62
2024/04/16 02:12:41;;;;;;;;;;;;;;;14.49;64.39;99880.06;107500;1255;109165;-64
2024/04/16 02:15:09;;;;;;;;;;;;;;;14.53;64.19;99877.42;107390;1252;107333;-64
2024/04/16 02:17:40;;;;;;;;;;;;;;;14.55;64.49;99882.05;107352;1253;97954;-64
2024/04/16 02:20:08;;;;;;;;;;;;;;;14.58;64.20;99888.95;107464;1253;97848;-63
2024/04/16 02:22:36;;;;;;;;;;;;;;;14.60;63.84;99908.43;107485;1253;112199;-63
2024/04/16 02:25:10;;;;;;;;;;;;;;;14.58;63.86;99915.60;107466;1253;107671;-63
2024/04/16 02:27:37;;;;;;;;;;;;;;;14.58;63.61;99920.18;107437;1253;107601;-63
2024/04/16 02:30:06;;;;;;;;;;;;;;;14.55;63.75;99926.55;107475;1253;97868;-60
2024/04/16 02:32:34;;;;;;;;;;;;;;;14.53;63.88;99919.94;107516;1253;98529;-64
2024/04/16 02:35:02;;;;;;;;;;;;;;;14.50;64.09;99907.55;107484;1257;111114;-64
2024/04/16 02:37:30;;;;;;;;;;;;;;;14.47;64.00;99895.65;107502;1253;107382;-63
2024/04/16 02:39:58;;;;;;;;;;;;;;;14.47;64.15;99894.06;107429;1253;107827;-63
2024/04/16 02:42:26;;;;;;;;;;;;;;;14.47;64.11;99895.11;107485;1253;97951;-63
2024/04/16 02:44:54;;;;;;;;;;;;;;;14.48;63.84;99902.58;107400;1257;98530;-63
2024/04/16 02:47:22;;;;;;;;;;;;;;;14.48;63.95;99915.35;107474;1252;112261;-63
2024/04/16 02:49:50;;;;;;;;;;;;;;;14.43;63.91;99922.10;107501;1253;109075;-64
2024/04/16 02:52:18;;;;;;;;;;;;;;;14.36;63.74;99934.60;107433;1253;108442;-63
2024/04/16 02:54:48;;;;;;;;;;;;;;;14.32;63.93;99951.88;107612;1252;97918;-63
2024/04/16 02:57:16;;;;;;;;;;;;;;;14.27;64.27;99959.13;107638;1251;97799;-62
2024/04/16 02:59:46;;;;;;;;;;;;;;;14.19;65.98;99961.18;107572;1254;111775;-62
2024/04/16 03:02:15;;;;;;;;;;;;;;;14.08;67.58;99966.52;107649;1255;107779;-63
2024/04/16 03:04:43;;;;;;;;;;;;;;;13.93;68.76;99969.92;107597;1253;108529;-64
2024/04/16 03:07:11;;;;;;;;;;;;;;;13.79;68.60;99970.77;107560;1253;97896;-63
2024/04/16 03:09:39;;;;;;;;;;;;;;;13.71;67.81;99964.67;107603;1253;97852;-63
2024/04/16 03:12:07;;;;;;;;;;;;;;;13.67;67.57;99950.02;107612;1251;111861;-63
2024/04/16 03:14:35;;;;;;;;;;;;;;;13.63;67.21;99930.83;107620;1251;106807;-63
2024/04/16 03:17:04;;;;;;;;;;;;;;;13.65;66.98;99914.27;107526;1255;107694;-62
2024/04/16 03:19:32;;;;;;;;;;;;;;;13.67;67.03;99916.44;107559;1251;97706;-63
2024/04/16 03:22:00;;;;;;;;;;;;;;;13.72;66.90;99916.82;107637;1251;97706;-64
2024/04/16 03:24:28;;;;;;;;;;;;;;;13.74;66.95;99919.45;107615;1251;111030;-65
2024/04/16 03:26:56;;;;;;;;;;;;;;;13.75;66.53;99918.50;107610;1254;107978;-62
2024/04/16 03:29:24;;;;;;;;;;;;;;;13.75;66.16;99915.35;107549;1251;108138;-63
2024/04/16 03:31:52;;;;;;;;;;;;;;;13.74;66.09;99910.63;107553;1253;97869;-63
2024/04/16 03:34:20;;;;;;;;;;;;;;;13.73;65.84;99906.23;107580;1255;99199;-63
2024/04/16 03:36:49;;;;;;;;;;;;;;;13.74;65.82;99896.91;107617;1254;111405;-63
2024/04/16 03:39:17;;;;;;;;;;;;;;;13.75;65.70;99887.29;107613;1254;107536;-64
2024/04/16 03:41:45;;;;;;;;;;;;;;;13.76;65.90;99890.08;107535;1254;107785;-64
2024/04/16 03:44:13;;;;;;;;;;;;;;;13.75;65.88;99895.05;107608;1251;97921;-64
2024/04/16 03:46:41;;;;;;;;;;;;;;;13.75;65.75;99898.81;107576;1255;97928;-64
2024/04/16 03:49:09;;;;;;;;;;;;;;;13.75;65.95;99894.27;107577;1254;111891;-64
2024/04/16 03:51:37;;;;;;;;;;;;;;;13.77;65.77;99888.14;107640;1253;107226;-64
2024/04/16 03:54:05;;;;;;;;;;;;;;;13.78;65.67;99888.38;107600;1254;106968;-65
2024/04/16 03:56:33;;;;;;;;;;;;;;;13.78;65.70;99880.80;107575;1254;97725;-62
2024/04/16 04:01:55;;;;;;;;;;;;;;;13.82;65.64;99860.89;107328;1254;111827;-63
2024/04/16 04:04:23;;;;;;;;;;;;;;;13.84;65.70;99860.36;107555;1253;108791;-63
2024/04/16 04:06:51;;;;;;;;;;;;;;;13.84;65.67;99856.22;107604;1254;108145;-62
2024/04/16 04:09:20;;;;;;;;;;;;;;;13.84;65.87;99859.00;107551;1256;97818;-66
2024/04/16 04:11:48;;;;;;;;;;;;;;;13.86;66.06;99867.96;107606;1255;97851;-64
2024/04/16 04:14:16;;;;;;;;;;;;;;;13.88;66.27;99867.18;107605;1253;111147;-64
2024/04/16 04:16:43;;;;;;;;;;;;;;;13.86;66.00;99873.41;107582;1253;108370;-64
2024/04/16 04:19:11;;;;;;;;;;;;;;;13.80;66.02;99880.64;107654;1253;108156;-63
2024/04/16 04:21:40;;;;;;;;;;;;;;;13.76;65.89;99875.66;107557;1254;97826;-63
2024/04/16 04:24:08;;;;;;;;;;;;;;;13.73;65.83;99866.20;107559;1252;97973;-63
2024/04/16 04:26:50;;;;;;;;;;;;;;;13.74;66.24;99866.10;107605;1255;111647;-63
2024/04/16 04:29:18;;;;;;;;;;;;;;;13.77;66.25;99861.81;107560;1253;108332;-63
2024/04/16 04:31:46;;;;;;;;;;;;;;;13.81;66.58;99861.80;107567;1254;107901;-63
2024/04/16 04:34:14;;;;;;;;;;;;;;;13.83;66.94;99858.86;107578;1252;97823;-64
2024/04/16 04:36:42;;;;;;;;;;;;;;;13.85;67.00;99857.14;107595;1251;97835;-63
2024/04/16 04:39:10;;;;;;;;;;;;;;;13.89;67.17;99862.17;107567;1252;111846;-63
2024/04/16 04:41:38;;;;;;;;;;;;;;;13.95;67.07;99868.72;107658;1254;107725;-63
2024/04/16 04:44:06;;;;;;;;;;;;;;;14.01;66.92;99875.30;107612;1251;108143;-63
2024/04/16 04:46:34;;;;;;;;;;;;;;;14.06;67.03;99888.02;107590;1251;97816;-64
2024/04/16 04:49:03;;;;;;;;;;;;;;;14.13;67.18;99888.47;107516;1252;97745;-65
2024/04/16 04:51:31;;;;;;;;;;;;;;;14.20;66.81;99890.40;107565;1253;112404;-63
2024/04/16 04:53:59;;;;;;;;;;;;;;;14.19;67.80;99898.02;107616;1253;108700;-62
2024/04/16 04:56:28;;;;;;;;;;;;;;;14.10;68.31;99897.48;107585;1253;107685;-63
2024/04/16 04:58:56;;;;;;;;;;;;;;;14.02;68.19;99902.05;107533;1253;97900;-63
2024/04/16 05:01:24;;;;;;;;;;;;;;;13.99;68.59;99906.68;107578;1256;97730;-63
2024/04/16 05:03:52;;;;;;;;;;;;;;;13.98;68.87;99903.79;107595;1254;112211;-63
2024/04/16 05:06:20;;;;;;;;;;;;;;;13.96;68.81;99901.48;107602;1254;107828;-63
2024/04/16 05:08:47;;;;;;;;;;;;;;;13.97;69.05;99898.80;107563;1252;107606;-64
2024/04/16 05:11:16;;;;;;;;;;;;;;;13.96;69.15;99896.90;107480;1253;98624;-62
2024/04/16 05:13:43;;;;;;;;;;;;;;;14.07;68.88;99895.67;107587;1255;97716;-62
2024/04/16 05:16:12;;;;;;;;;;;;;;;14.19;68.83;99898.22;107573;1252;111715;-63
2024/04/16 05:18:40;;;;;;;;;;;;;;;14.30;68.41;99898.41;107605;1251;108396;-62
2024/04/16 05:21:08;;;;;;;;;;;;;;;14.38;68.36;99903.49;107636;1254;108248;-63
2024/04/16 05:23:36;;;;;;;;;;;;;;;14.40;67.72;99891.05;107604;1254;97697;-63
2024/04/16 05:26:04;;;;;;;;;;;;;;;14.46;67.63;99889.30;107598;1254;97845;-64
2024/04/16 05:28:33;;;;;;;;;;;;;;;14.53;67.48;99887.30;107573;1253;110867;-64
2024/04/16 05:31:01;;;;;;;;;;;;;;;14.62;67.40;99886.14;107636;1252;108353;-63
2024/04/16 05:33:29;;;;;;;;;;;;;;;14.64;67.01;99895.77;107573;1254;107721;-63
2024/04/16 05:35:57;;;;;;;;;;;;;;;14.62;66.72;99895.55;107630;1251;97919;-63
2024/04/16 05:38:33;;;;;;;;;;;;;;;14.66;66.75;99896.50;107654;1254;98417;-63
2024/04/16 05:41:04;;;;;;;;;;;;;;;14.76;66.65;99898.98;107628;1253;112159;-63
2024/04/16 05:43:32;;;;;;;;;;;;;;;14.83;66.23;99895.16;107613;1253;107779;-63
2024/04/16 05:46:01;;;;;;;;;;;;;;;14.90;66.13;99897.79;107615;1254;106929;-62
2024/04/16 05:48:29;;;;;;;;;;;;;;;14.98;66.05;99896.75;107617;1254;98296;-63
2024/04/16 05:50:57;;;;;;;;;;;;;;;15.06;65.75;99895.14;107638;1254;98609;-63
2024/04/16 05:53:25;;;;;;;;;;;;;;;15.08;65.65;99885.63;107622;1255;111875;-64
2024/04/16 05:55:53;;;;;;;;;;;;;;;15.15;65.58;99881.05;107615;1254;108562;-63
2024/04/16 05:58:22;;;;;;;;;;;;;;;15.24;65.32;99874.21;107565;1255;108068;-64
2024/04/16 06:00:51;;;;;;;;;;;;;;;15.38;65.28;99872.13;107610;1252;97854;-63
2024/04/16 06:03:19;;;;;;;;;;;;;;;15.49;65.03;99878.88;107593;1254;97833;-64
2024/04/16 06:05:47;;;;;;;;;;;;;;;15.56;64.82;99879.98;107615;1254;111988;-63
2024/04/16 06:08:15;;;;;;;;;;;;;;;15.61;64.55;99880.31;107600;1254;107778;-63
2024/04/16 06:10:43;;;;;;;;;;;;;;;15.70;64.50;99877.58;107577;1255;107785;-63
2024/04/16 06:13:11;;;;;;;;;;;;;;;15.77;64.23;99872.66;106719;1253;1007136;-64
2024/04/16 06:15:39;;;;;;;;;;;;;;;15.83;63.99;99863.88;107582;1255;97709;-64
2024/04/16 06:18:09;;;;;;;;;;;;;;;15.93;63.86;99866.40;107599;1255;112281;-63
2024/04/16 06:20:37;;;;;;;;;;;;;;;16.07;63.72;99858.84;107595;1254;108739;-63
2024/04/16 06:23:06;;;;;;;;;;;;;;;16.19;63.35;99857.13;107616;1252;108553;-64
2024/04/16 06:25:36;;;;;;;;;;;;;;;16.32;63.15;99853.36;107612;1253;97832;-64
2024/04/16 06:28:04;;;;;;;;;;;;;;;16.49;62.71;99856.11;107567;1254;97887;-63
2024/04/16 06:30:32;;;;;;;;;;;;;;;16.57;62.31;99851.59;107620;1254;112026;-63
2024/04/16 06:33:00;;;;;;;;;;;;;;;16.69;62.03;99844.98;107590;1252;108295;-63
2024/04/16 06:35:28;;;;;;;;;;;;;;;16.85;61.69;99844.23;107564;1252;107631;-63
2024/04/16 06:37:56;;;;;;;;;;;;;;;16.88;60.74;99844.88;107599;1253;97979;-63
2024/04/16 06:40:24;;;;;;;;;;;;;;;16.83;60.68;99841.27;107593;1253;97927;-63
2024/04/16 06:42:54;;;;;;;;;;;;;;;16.94;60.82;99843.13;107549;1254;110730;-63
2024/04/16 06:45:23;;;;;;;;;;;;;;;17.08;60.51;99840.80;107703;1254;107801;-61
2024/04/16 06:47:51;;;;;;;;;;;;;;;17.23;60.38;99837.27;107595;1255;108244;-65
2024/04/16 06:50:19;;;;;;;;;;;;;;;17.40;59.80;99839.87;107589;1253;97842;-64
2024/04/16 06:52:47;;;;;;;;;;;;;;;17.42;59.12;99840.96;107617;1255;97834;-64
2024/04/16 06:55:15;;;;;;;;;;;;;;;17.49;59.41;99838.05;107577;1252;111353;-64
2024/04/16 06:57:43;;;;;;;;;;;;;;;17.68;59.13;99834.89;107572;1254;107863;-64
2024/04/16 07:00:11;;;;;;;;;;;;;;;17.80;58.68;99835.54;107608;1254;107633;-64
2024/04/16 07:02:39;;;;;;;;;;;;;;;17.92;58.56;99832.21;107565;1253;97823;-63
2024/04/16 07:05:09;;;;;;;;;;;;;;;18.04;58.35;99829.81;107623;1255;97896;-63
2024/04/16 07:07:37;;;;;;;;;;;;;;;18.15;58.07;99826.02;107623;1254;111559;-63
2024/04/16 07:10:06;;;;;;;;;;;;;;;18.26;57.80;99823.76;107582;1254;108263;-63
2024/04/16 07:12:34;;;;;;;;;;;;;;;18.32;57.13;99820.14;107507;1255;108221;-64
2024/04/16 07:15:03;;;;;;;;;;;;;;;18.40;56.80;99818.30;107545;1254;97825;-64
2024/04/16 07:17:31;;;;;;;;;;;;;;;18.45;56.95;99820.01;107545;1254;97853;-63
2024/04/16 07:19:59;;;;;;;;;;;;;;;18.60;56.99;99813.90;107562;1252;110708;-65
2024/04/16 07:22:27;;;;;;;;;;;;;;;18.72;56.22;99815.39;107657;1256;108245;-66
2024/04/16 07:24:55;;;;;;;;;;;;;;;18.82;55.90;99816.37;107607;1254;107620;-62
2024/04/16 07:27:23;;;;;;;;;;;;;;;18.95;55.81;99812.88;107608;1254;97819;-63
2024/04/16 07:29:51;;;;;;;;;;;;;;;19.09;55.36;99805.31;107600;1254;97934;-63
2024/04/16 07:32:20;;;;;;;;;;;;;;;19.27;55.38;99803.89;107633;1253;110563;-64
2024/04/16 07:34:48;;;;;;;;;;;;;;;19.46;54.83;99806.14;107590;1254;107962;-64
2024/04/16 07:37:16;;;;;;;;;;;;;;;19.59;54.14;99808.67;107529;1252;108287;-63
2024/04/16 07:39:47;;;;;;;;;;;;;;;19.68;53.74;99804.67;107526;1254;97835;-63
2024/04/16 07:42:15;;;;;;;;;;;;;;;19.81;53.70;99798.17;107583;1253;97720;-63
2024/04/16 07:44:43;;;;;;;;;;;;;;;19.98;53.63;99797.56;107542;1254;113538;-62
2024/04/16 07:47:10;;;;;;;;;;;;;;;20.10;52.80;99800.65;107549;1254;107443;-63
2024/04/16 07:49:38;;;;;;;;;;;;;;;20.21;52.76;99796.99;107633;1253;107516;-63
2024/04/16 07:52:06;;;;;;;;;;;;;;;20.34;52.35;99791.99;107616;1254;97890;-63
2024/04/16 07:54:35;;;;;;;;;;;;;;;20.47;51.72;99790.98;107552;1254;97848;-63
2024/04/16 07:57:03;;;;;;;;;;;;;;;20.54;51.49;99783.56;107581;1254;111451;-63
2024/04/16 07:59:31;;;;;;;;;;;;;;;20.65;51.23;99780.45;107606;1254;108811;-63
2024/04/16 08:01:59;;;;;;;;;;;;;;;20.72;50.96;99779.08;107624;1253;108622;-63
2024/04/16 08:04:27;;;;;;;;;;;;;;;20.80;50.57;99781.41;107541;1253;97826;-63
2024/04/16 08:06:55;;;;;;;;;;;;;;;21.02;51.18;99775.76;107598;1254;97845;-63
2024/04/16 08:09:23;;;;;;;;;;;;;;;21.21;50.44;99765.08;107542;1253;111712;-63
2024/04/16 08:11:51;;;;;;;;;;;;;;;21.34;50.18;99765.08;107601;1253;108575;-63
2024/04/16 08:14:21;;;;;;;;;;;;;;;21.50;50.17;99766.31;107599;1253;108200;-63
2024/04/16 08:16:50;;;;;;;;;;;;;;;21.70;50.20;99766.55;107568;1253;97736;-63
2024/04/16 08:19:21;;;;;;;;;;;;;;;21.87;48.96;99766.53;107525;1254;97847;-62
2024/04/16 08:21:50;;;;;;;;;;;;;;;22.02;48.99;99765.06;107548;1254;112243;-62
2024/04/16 08:24:21;;;;;;;;;;;;;;;22.17;48.71;99766.41;107568;1253;107003;-63
2024/04/16 08:26:49;;;;;;;;;;;;;;;22.35;48.33;99763.72;107590;1254;108209;-62
2024/04/16 08:29:18;;;;;;;;;;;;;;;22.52;47.41;99755.73;107609;1254;97873;-61
2024/04/16 08:31:46;;;;;;;;;;;;;;;22.62;47.34;99751.30;107616;1256;97809;-62
2024/04/16 08:34:14;;;;;;;;;;;;;;;22.76;47.07;99749.73;107629;1253;111801;-62
2024/04/16 08:36:42;;;;;;;;;;;;;;;22.91;46.97;99747.95;107577;1256;108306;-62
2024/04/16 08:39:10;;;;;;;;;;;;;;;23.10;46.55;99743.45;107540;1254;108229;-63
2024/04/16 08:41:38;;;;;;;;;;;;;;;23.30;45.88;99738.63;107547;1252;97933;-62
2024/04/16 08:44:06;;;;;;;;;;;;;;;23.43;44.38;99738.52;107540;1254;97821;-63
2024/04/16 08:46:38;;;;;;;;;;;;;;;23.52;44.53;99741.83;107542;1254;111832;-63
2024/04/16 08:49:08;;;;;;;;;;;;;;;23.60;43.72;99740.54;107628;1252;107757;-63
2024/04/16 08:51:36;;;;;;;;;;;;;;;23.74;44.45;99731.66;107692;1254;108191;-63
2024/04/16 08:54:07;;;;;;;;;;;;;;;23.89;43.17;99729.76;107569;1254;97826;-63
2024/04/16 08:56:36;;;;;;;;;;;;;;;24.00;42.50;99726.48;107627;1254;97851;-63
2024/04/16 08:59:04;;;;;;;;;;;;;;;24.16;41.71;99723.72;107605;1253;112249;-62
2024/04/16 09:01:35;;;;;;;;;;;;;;;24.33;42.19;99721.38;107592;1254;108341;-63
2024/04/16 09:04:04;;;;;;;;;;;;;;;24.49;41.82;99717.35;107615;1252;108715;-62
2024/04/16 09:06:33;;;;;;;;;;;;;;;24.73;41.93;99713.50;107650;1255;97922;-63
2024/04/16 09:09:01;;;;;;;;;;;;;;;24.98;41.44;99708.19;107622;1254;97887;-61
2024/04/16 09:11:40;;;;;;;;;;;;;;;25.21;40.34;99702.43;107662;1254;112058;-61
2024/04/16 09:14:10;;;;;;;;;;;;;;;25.38;40.28;99699.69;107570;1253;109329;-62
2024/04/16 09:16:38;;;;;;;;;;;;;;;25.69;40.03;99692.21;107590;1252;109033;-62
2024/04/16 09:19:12;;;;;;;;;;;;;;;26.03;39.46;99691.30;107539;1252;97857;-64
2024/04/16 09:21:40;;;;;;;;;;;;;;;26.34;38.67;99686.82;107625;1254;98524;-63
2024/04/16 09:24:08;;;;;;;;;;;;;;;26.68;38.21;99681.17;107653;1254;111527;-62
2024/04/16 09:26:37;;;;;;;;;;;;;;;27.06;35.70;99682.41;107644;1254;108739;-63
2024/04/16 09:29:05;;;;;;;;;;;;;;;27.37;35.54;99673.30;107615;1254;108133;-65
2024/04/16 09:31:34;;;;;;;;;;;;;;;27.79;35.36;99671.20;107638;1254;97845;-64
2024/04/16 09:34:09;;;;;;;;;;;;;;;28.19;35.13;99668.16;107644;1252;97856;-64
2024/04/16 09:36:47;;;;;;;;;;;;;;;28.45;34.87;99670.13;107572;1253;112084;-62
2024/04/16 09:39:18;;;;;;;;;;;;;;;28.47;34.51;99668.96;107546;1256;108031;-62
2024/04/16 09:41:50;;;;;;;;;;;;;;;28.52;34.93;99658.15;107554;1253;107505;-62
2024/04/16 09:44:19;;;;;;;;;;;;;;;28.65;35.35;99657.65;107533;1253;98644;-63
2024/04/16 09:46:47;;;;;;;;;;;;;;;28.73;34.80;99654.30;107675;1254;97717;-62
2024/04/16 09:49:23;;;;;;;;;;;;;;;29.02;34.15;99651.70;107599;1254;111969;-63
2024/04/16 09:52:03;;;;;;;;;;;;;;;29.25;32.74;99650.61;107587;1253;108024;-64
2024/04/16 09:54:33;;;;;;;;;;;;;;;29.40;31.78;99647.58;107649;1254;108429;-64
2024/04/16 09:57:01;;;;;;;;;;;;;;;29.59;31.45;99646.59;107462;1254;97853;-64
2024/04/16 09:59:29;;;;;;;;;;;;;;;29.76;32.04;99645.43;107468;1254;98471;-64
2024/04/16 10:01:58;;;;;;;;;;;;;;;30.06;31.36;99645.87;107504;1254;111654;-62
2024/04/16 10:04:27;;;;;;;;;;;;;;;30.27;31.43;99642.85;107554;1254;107891;-64
2024/04/16 10:06:55;;;;;;;;;;;;;;;30.43;29.54;99642.61;107490;1254;107662;-64
2024/04/16 10:09:24;;;;;;;;;;;;;;;30.44;30.17;99639.77;107620;1252;97883;-63
2024/04/16 10:11:52;;;;;;;;;;;;;;;30.71;29.63;99634.16;107591;1254;97826;-65
2024/04/16 10:14:23;;;;;;;;;;;;;;;30.90;29.01;99632.63;107562;1254;110585;-63
2024/04/16 10:16:51;;;;;;;;;;;;;;;31.23;29.28;99623.02;107580;1254;107640;-64
2024/04/16 10:19:20;;;;;;;;;;;;;;;31.76;29.11;99624.30;107581;1254;107912;-63
2024/04/16 10:21:49;;;;;;;;;;;;;;;31.92;28.18;99627.23;107606;1254;97986;-62
2024/04/16 10:24:18;;;;;;;;;;;;;;;32.37;27.16;99624.73;107644;1254;97849;-63
2024/04/16 10:26:47;;;;;;;;;;;;;;;32.85;27.46;99623.88;107544;1254;111242;-63
2024/04/16 10:29:16;;;;;;;;;;;;;;;33.51;27.33;99614.02;107616;1254;108009;-63
2024/04/16 10:31:51;;;;;;;;;;;;;;;34.21;25.66;99610.77;107599;1254;108429;-64
2024/04/16 10:34:23;;;;;;;;;;;;;;;34.69;25.07;99611.38;107563;1254;97927;-63
2024/04/16 10:36:51;;;;;;;;;;;;;;;35.02;23.98;99604.54;107557;1254;97837;-62
2024/04/16 10:39:26;;;;;;;;;;;;;;;35.29;24.52;99594.31;107567;1254;111906;-64
2024/04/16 10:41:57;;;;;;;;;;;;;;;35.61;23.81;99584.66;107546;1255;108003;-64
2024/04/16 10:44:26;;;;;;;;;;;;;;;36.01;24.06;99579.54;107610;1254;108509;-64
2024/04/16 10:46:56;;;;;;;;;;;;;;;36.41;23.32;99579.02;107596;1254;97845;-64
2024/04/16 10:49:26;;;;;;;;;;;;;;;36.51;22.44;99577.39;107674;1254;97823;-64
2024/04/16 10:51:55;;;;;;;;;;;;;;;36.58;22.66;99570.38;107616;1254;111832;-63
2024/04/16 10:54:23;;;;;;;;;;;;;;;36.73;22.04;99564.95;107594;1254;108878;-62
2024/04/16 10:56:51;;;;;;;;;;;;;;;36.82;22.52;99554.40;107573;1253;107877;-63
2024/04/16 10:59:19;;;;;;;;;;;;;;;36.80;22.21;99554.88;107588;1256;97893;-63
2024/04/16 11:01:48;;;;;;;;;;;;;;;36.80;21.81;99551.84;107587;1254;97726;-63
2024/04/16 11:04:17;;;;;;;;;;;;;;;36.86;21.05;99550.65;107656;1256;112334;-62
2024/04/16 11:06:46;;;;;;;;;;;;;;;36.72;20.54;99557.63;107652;1254;107031;-64
2024/04/16 11:09:15;;;;;;;;;;;;;;;36.30;19.58;99550.40;107598;1256;107929;-63
2024/04/16 11:11:44;;;;;;;;;;;;;;;36.33;19.91;99551.55;107608;1254;97844;-64
2024/04/16 11:14:13;;;;;;;;;;;;;;;36.58;19.56;99548.38;107621;1252;97809;-63
2024/04/16 11:16:41;;;;;;;;;;;;;;;36.67;19.89;99545.03;107641;1254;110339;-63
2024/04/16 11:19:10;;;;;;;;;;;;;;;36.90;19.15;99545.17;107625;1254;108328;-64
2024/04/16 11:21:38;;;;;;;;;;;;;;;36.82;20.06;99543.27;107676;1256;107038;-64
2024/04/16 11:24:07;;;;;;;;;;;;;;;36.79;19.69;99538.17;107598;1254;97857;-63
2024/04/16 11:26:38;;;;;;;;;;;;;;;37.07;19.42;99540.18;107582;1254;97697;-62
2024/04/16 11:29:06;;;;;;;;;;;;;;;37.44;18.94;99540.37;107547;1256;111641;-63
2024/04/16 11:31:35;;;;;;;;;;;;;;;37.93;18.99;99545.27;107565;1254;108308;-62
2024/04/16 11:34:03;;;;;;;;;;;;;;;38.37;18.00;99539.38;107500;1256;107024;-64
2024/04/16 11:36:31;;;;;;;;;;;;;;;38.63;18.49;99538.64;107521;1254;97835;-63
2024/04/16 11:38:59;;;;;;;;;;;;;;;38.67;17.37;99541.08;107560;1256;97826;-63
2024/04/16 11:41:29;;;;;;;;;;;;;;;38.35;17.21;99533.44;107602;1256;111734;-63
2024/04/16 11:43:57;;;;;;;;;;;;;;;38.12;17.32;99523.20;107613;1254;107905;-63
2024/04/16 11:46:25;;;;;;;;;;;;;;;38.30;16.98;99530.67;107581;1254;108299;-62
2024/04/16 11:48:54;;;;;;;;;;;;;;;38.41;16.74;99526.68;107628;1255;97873;-63
2024/04/16 11:51:22;;;;;;;;;;;;;;;38.46;17.16;99520.16;107635;1256;97937;-62
2024/04/16 11:53:50;;;;;;;;;;;;;;;38.67;17.67;99509.95;107577;1254;111994;-63
2024/04/16 11:56:18;;;;;;;;;;;;;;;39.13;17.10;99506.98;107648;1254;108676;-63
2024/04/16 11:58:46;;;;;;;;;;;;;;;39.47;17.32;99496.11;107599;1254;107553;-63
2024/04/16 12:01:14;;;;;;;;;;;;;;;39.73;17.06;99495.64;107591;1256;97837;-62
2024/04/16 12:03:43;;;;;;;;;;;;;;;39.97;17.20;99493.96;107619;1253;97838;-64
2024/04/16 12:06:11;;;;;;;;;;;;;;;40.41;16.68;99491.16;107620;1254;110923;-63
2024/04/16 12:08:39;;;;;;;;;;;;;;;40.53;16.21;99488.45;107635;1254;108966;-63
2024/04/16 12:11:07;;;;;;;;;;;;;;;40.59;15.65;99489.52;107569;1255;108430;-64
2024/04/16 12:13:35;;;;;;;;;;;;;;;40.40;15.61;99478.67;107577;1256;97822;-64
2024/04/16 12:16:03;;;;;;;;;;;;;;;40.42;15.23;99481.92;107622;1255;97848;-64
2024/04/16 12:18:31;;;;;;;;;;;;;;;40.49;15.14;99471.85;107598;1254;110705;-63
2024/04/16 12:20:59;;;;;;;;;;;;;;;40.68;14.88;99473.30;107549;1254;107169;-64
2024/04/16 12:23:28;;;;;;;;;;;;;;;40.82;15.35;99463.74;107577;1257;108309;-63
2024/04/16 12:25:56;;;;;;;;;;;;;;;41.21;14.97;99459.71;107603;1253;97723;-64
2024/04/16 12:28:24;;;;;;;;;;;;;;;41.50;14.28;99466.97;107614;1254;97852;-63
2024/04/16 12:30:52;;;;;;;;;;;;;;;41.49;13.68;99463.09;107637;1254;111566;-61
2024/04/16 12:33:21;;;;;;;;;;;;;;;41.31;14.01;99452.45;107639;1257;108636;-62
2024/04/16 12:35:49;;;;;;;;;;;;;;;41.10;14.53;99444.19;107572;1256;107647;-62
2024/04/16 12:38:17;;;;;;;;;;;;;;;41.07;14.60;99433.99;107567;1254;97841;-63
2024/04/16 12:40:46;;;;;;;;;;;;;;;41.49;14.76;99428.66;107608;1254;97844;-64